sensor_id;sensor_type;location;lat;lon;timestamp;temperature;humidity
6210;DHT22;3138;52.550;13.148;2022-08-19T00:00:47;20.40;99.90
6210;DHT22;3138;52.550;13.148;2022-08-19T00:03:15;20.40;99.90
6210;DHT22;3138;52.550;13.148;2022-08-19T00:05:42;20.40;99.90
6210;DHT22;3138;52.550;13.148;2022-08-19T00:08:09;20.40;99.90
6210;DHT22;3138;52.550;13.148;2022-08-19T00:10:36;20.40;99.90
6210;DHT22;3138;52.550;13.148;2022-08-19T00:13:03;20.40;99.90
6210;DHT22;3138;52.550;13.148;2022-08-19T00:15:31;20.40;99.90
6210;DHT22;3138;52.550;13.148;2022-08-19T00:17:58;20.40;99.90
6210;DHT22;3138;52.550;13.148;2022-08-19T00:20:25;20.50;99.90
6210;DHT22;3138;52.550;13.148;2022-08-19T00:22:52;20.40;99.90
6210;DHT22;3138;52.550;13.148;2022-08-19T00:25:20;20.40;99.90
6210;DHT22;3138;52.550;13.148;2022-08-19T00:27:47;20.50;99.90
6210;DHT22;3138;52.550;13.148;2022-08-19T00:30:14;20.40;99.90
6210;DHT22;3138;52.550;13.148;2022-08-19T00:32:42;20.40;99.90
6210;DHT22;3138;52.550;13.148;2022-08-19T00:35:10;20.50;99.90
6210;DHT22;3138;52.550;13.148;2022-08-19T00:37:37;20.50;99.90
6210;DHT22;3138;52.550;13.148;2022-08-19T00:40:06;20.50;99.90
6210;DHT22;3138;52.550;13.148;2022-08-19T00:42:33;20.50;99.90
6210;DHT22;3138;52.550;13.148;2022-08-19T00:45:00;20.40;99.90
6210;DHT22;3138;52.550;13.148;2022-08-19T00:47:27;20.50;99.90
6210;DHT22;3138;52.550;13.148;2022-08-19T00:49:57;20.50;99.90
6210;DHT22;3138;52.550;13.148;2022-08-19T00:52:27;20.50;99.90
6210;DHT22;3138;52.550;13.148;2022-08-19T00:54:56;20.50;99.90
6210;DHT22;3138;52.550;13.148;2022-08-19T00:57:27;20.50;99.90
6210;DHT22;3138;52.550;13.148;2022-08-19T00:59:56;20.40;99.90
6210;DHT22;3138;52.550;13.148;2022-08-19T01:02:25;20.40;99.90
6210;DHT22;3138;52.550;13.148;2022-08-19T01:04:54;20.40;99.90
6210;DHT22;3138;52.550;13.148;2022-08-19T01:07:21;20.40;99.90
6210;DHT22;3138;52.550;13.148;2022-08-19T01:09:48;20.50;99.90
6210;DHT22;3138;52.550;13.148;2022-08-19T01:12:16;20.40;99.90
6210;DHT22;3138;52.550;13.148;2022-08-19T01:14:43;20.40;99.90
6210;DHT22;3138;52.550;13.148;2022-08-19T01:17:11;20.40;99.90
6210;DHT22;3138;52.550;13.148;2022-08-19T01:19:41;20.40;99.90
6210;DHT22;3138;52.550;13.148;2022-08-19T01:22:13;20.40;99.90
6210;DHT22;3138;52.550;13.148;2022-08-19T01:24:43;20.40;99.90
6210;DHT22;3138;52.550;13.148;2022-08-19T01:27:10;20.30;99.90
6210;DHT22;3138;52.550;13.148;2022-08-19T01:29:38;20.30;99.90
6210;DHT22;3138;52.550;13.148;2022-08-19T01:32:07;20.30;99.90
6210;DHT22;3138;52.550;13.148;2022-08-19T01:34:34;20.30;99.90
6210;DHT22;3138;52.550;13.148;2022-08-19T01:37:06;20.20;99.90
6210;DHT22;3138;52.550;13.148;2022-08-19T01:39:33;20.30;99.90
6210;DHT22;3138;52.550;13.148;2022-08-19T01:42:02;20.30;99.90
6210;DHT22;3138;52.550;13.148;2022-08-19T01:44:30;20.40;99.90
6210;DHT22;3138;52.550;13.148;2022-08-19T01:46:56;20.40;99.90
6210;DHT22;3138;52.550;13.148;2022-08-19T01:49:25;20.30;99.90
6210;DHT22;3138;52.550;13.148;2022-08-19T01:51:52;20.30;99.90
6210;DHT22;3138;52.550;13.148;2022-08-19T01:54:22;20.30;99.90
6210;DHT22;3138;52.550;13.148;2022-08-19T01:56:50;20.40;99.90
6210;DHT22;3138;52.550;13.148;2022-08-19T01:59:20;20.40;99.90
6210;DHT22;3138;52.550;13.148;2022-08-19T02:01:48;20.40;99.90
6210;DHT22;3138;52.550;13.148;2022-08-19T02:04:15;20.40;99.90
6210;DHT22;3138;52.550;13.148;2022-08-19T02:06:42;20.40;99.90
6210;DHT22;3138;52.550;13.148;2022-08-19T02:09:09;20.40;99.90
6210;DHT22;3138;52.550;13.148;2022-08-19T02:11:37;20.30;99.90
6210;DHT22;3138;52.550;13.148;2022-08-19T02:14:06;20.40;99.90
6210;DHT22;3138;52.550;13.148;2022-08-19T02:16:35;20.40;99.90
6210;DHT22;3138;52.550;13.148;2022-08-19T02:19:03;20.30;99.90
6210;DHT22;3138;52.550;13.148;2022-08-19T02:21:30;20.40;99.90
6210;DHT22;3138;52.550;13.148;2022-08-19T02:23:57;20.40;99.90
6210;DHT22;3138;52.550;13.148;2022-08-19T02:26:24;20.30;99.90
6210;DHT22;3138;52.550;13.148;2022-08-19T02:28:52;20.30;99.90
6210;DHT22;3138;52.550;13.148;2022-08-19T02:31:21;20.20;99.90
6210;DHT22;3138;52.550;13.148;2022-08-19T02:33:49;20.20;99.90
6210;DHT22;3138;52.550;13.148;2022-08-19T02:36:18;20.20;99.90
6210;DHT22;3138;52.550;13.148;2022-08-19T02:38:45;20.10;99.90
6210;DHT22;3138;52.550;13.148;2022-08-19T02:41:14;20.10;99.90
6210;DHT22;3138;52.550;13.148;2022-08-19T02:43:41;20.00;99.90
6210;DHT22;3138;52.550;13.148;2022-08-19T02:46:12;20.00;99.90
6210;DHT22;3138;52.550;13.148;2022-08-19T02:48:39;20.00;99.90
6210;DHT22;3138;52.550;13.148;2022-08-19T02:51:07;20.00;99.90
6210;DHT22;3138;52.550;13.148;2022-08-19T02:53:34;19.90;99.90
6210;DHT22;3138;52.550;13.148;2022-08-19T02:56:01;19.90;99.90
6210;DHT22;3138;52.550;13.148;2022-08-19T02:58:32;20.00;99.90
6210;DHT22;3138;52.550;13.148;2022-08-19T03:00:59;20.00;99.90
6210;DHT22;3138;52.550;13.148;2022-08-19T03:03:26;19.90;99.90
6210;DHT22;3138;52.550;13.148;2022-08-19T03:06:03;19.90;99.90
6210;DHT22;3138;52.550;13.148;2022-08-19T03:08:31;19.90;99.90
6210;DHT22;3138;52.550;13.148;2022-08-19T03:10:58;19.90;99.90
6210;DHT22;3138;52.550;13.148;2022-08-19T03:13:25;19.90;99.90
6210;DHT22;3138;52.550;13.148;2022-08-19T03:15:52;19.90;99.90
6210;DHT22;3138;52.550;13.148;2022-08-19T03:18:18;19.90;99.90
6210;DHT22;3138;52.550;13.148;2022-08-19T03:20:47;19.90;99.90
6210;DHT22;3138;52.550;13.148;2022-08-19T03:23:15;19.90;99.90
6210;DHT22;3138;52.550;13.148;2022-08-19T03:25:46;19.90;99.90
6210;DHT22;3138;52.550;13.148;2022-08-19T03:28:14;19.90;99.90
6210;DHT22;3138;52.550;13.148;2022-08-19T03:30:42;19.90;99.90
6210;DHT22;3138;52.550;13.148;2022-08-19T03:33:10;19.90;99.90
6210;DHT22;3138;52.550;13.148;2022-08-19T03:35:38;19.90;99.90
6210;DHT22;3138;52.550;13.148;2022-08-19T03:38:05;19.90;99.90
6210;DHT22;3138;52.550;13.148;2022-08-19T03:40:36;19.80;99.90
6210;DHT22;3138;52.550;13.148;2022-08-19T03:43:04;19.80;99.90
6210;DHT22;3138;52.550;13.148;2022-08-19T03:45:31;19.80;99.90
6210;DHT22;3138;52.550;13.148;2022-08-19T03:47:58;19.80;99.90
6210;DHT22;3138;52.550;13.148;2022-08-19T03:50:24;19.70;99.90
6210;DHT22;3138;52.550;13.148;2022-08-19T03:52:51;19.70;99.90
6210;DHT22;3138;52.550;13.148;2022-08-19T03:55:18;19.60;99.90
6210;DHT22;3138;52.550;13.148;2022-08-19T03:57:45;19.60;99.90
6210;DHT22;3138;52.550;13.148;2022-08-19T04:00:16;19.60;99.90
6210;DHT22;3138;52.550;13.148;2022-08-19T04:02:43;19.60;99.90
6210;DHT22;3138;52.550;13.148;2022-08-19T04:05:10;19.60;99.90
6210;DHT22;3138;52.550;13.148;2022-08-19T04:07:38;19.60;99.90
6210;DHT22;3138;52.550;13.148;2022-08-19T04:10:05;19.60;99.90
6210;DHT22;3138;52.550;13.148;2022-08-19T04:12:32;19.60;99.90
6210;DHT22;3138;52.550;13.148;2022-08-19T04:14:59;19.60;99.90
6210;DHT22;3138;52.550;13.148;2022-08-19T04:17:27;19.60;99.90
6210;DHT22;3138;52.550;13.148;2022-08-19T04:19:53;19.60;99.90
6210;DHT22;3138;52.550;13.148;2022-08-19T04:22:20;19.60;99.90
6210;DHT22;3138;52.550;13.148;2022-08-19T04:24:47;19.60;99.90
6210;DHT22;3138;52.550;13.148;2022-08-19T04:27:14;19.60;99.90
6210;DHT22;3138;52.550;13.148;2022-08-19T04:29:41;19.60;99.90
6210;DHT22;3138;52.550;13.148;2022-08-19T04:32:08;19.60;99.90
6210;DHT22;3138;52.550;13.148;2022-08-19T04:34:37;19.70;99.90
6210;DHT22;3138;52.550;13.148;2022-08-19T04:37:06;19.70;99.90
6210;DHT22;3138;52.550;13.148;2022-08-19T04:39:38;19.70;99.90
6210;DHT22;3138;52.550;13.148;2022-08-19T04:42:23;19.70;99.90
6210;DHT22;3138;52.550;13.148;2022-08-19T04:45:06;19.70;99.90
6210;DHT22;3138;52.550;13.148;2022-08-19T04:47:35;19.70;99.90
6210;DHT22;3138;52.550;13.148;2022-08-19T04:50:04;19.70;99.90
6210;DHT22;3138;52.550;13.148;2022-08-19T04:52:31;19.70;99.90
6210;DHT22;3138;52.550;13.148;2022-08-19T04:54:58;19.70;99.90
6210;DHT22;3138;52.550;13.148;2022-08-19T04:57:25;19.70;99.90
6210;DHT22;3138;52.550;13.148;2022-08-19T04:59:54;19.70;99.90
6210;DHT22;3138;52.550;13.148;2022-08-19T05:02:21;19.70;99.90
6210;DHT22;3138;52.550;13.148;2022-08-19T05:04:50;19.70;99.90
6210;DHT22;3138;52.550;13.148;2022-08-19T05:07:18;19.70;99.90
6210;DHT22;3138;52.550;13.148;2022-08-19T05:09:45;19.70;99.90
6210;DHT22;3138;52.550;13.148;2022-08-19T05:12:12;19.70;99.90
6210;DHT22;3138;52.550;13.148;2022-08-19T05:14:38;19.70;99.90
6210;DHT22;3138;52.550;13.148;2022-08-19T05:17:05;19.80;99.90
6210;DHT22;3138;52.550;13.148;2022-08-19T05:19:32;19.80;99.90
6210;DHT22;3138;52.550;13.148;2022-08-19T05:22:18;19.80;99.90
6210;DHT22;3138;52.550;13.148;2022-08-19T05:25:03;19.90;99.90
6210;DHT22;3138;52.550;13.148;2022-08-19T05:27:30;20.00;99.90
6210;DHT22;3138;52.550;13.148;2022-08-19T05:29:57;20.10;99.90
6210;DHT22;3138;52.550;13.148;2022-08-19T05:32:24;20.20;99.90
6210;DHT22;3138;52.550;13.148;2022-08-19T05:34:51;20.20;99.90
6210;DHT22;3138;52.550;13.148;2022-08-19T05:37:19;20.30;99.90
6210;DHT22;3138;52.550;13.148;2022-08-19T05:39:47;20.30;99.90
6210;DHT22;3138;52.550;13.148;2022-08-19T05:42:14;20.40;99.90
6210;DHT22;3138;52.550;13.148;2022-08-19T05:44:43;20.50;99.90
6210;DHT22;3138;52.550;13.148;2022-08-19T05:47:11;20.80;99.90
6210;DHT22;3138;52.550;13.148;2022-08-19T05:49:38;21.00;99.90
6210;DHT22;3138;52.550;13.148;2022-08-19T05:52:07;21.10;99.90
6210;DHT22;3138;52.550;13.148;2022-08-19T05:54:38;21.20;99.90
6210;DHT22;3138;52.550;13.148;2022-08-19T05:57:08;21.30;99.90
6210;DHT22;3138;52.550;13.148;2022-08-19T05:59:35;21.40;99.90
6210;DHT22;3138;52.550;13.148;2022-08-19T06:02:04;21.50;99.90
6210;DHT22;3138;52.550;13.148;2022-08-19T06:04:31;21.40;99.90
6210;DHT22;3138;52.550;13.148;2022-08-19T06:06:58;21.50;99.90
6210;DHT22;3138;52.550;13.148;2022-08-19T06:09:26;21.40;99.90
6210;DHT22;3138;52.550;13.148;2022-08-19T06:11:56;21.20;99.90
6210;DHT22;3138;52.550;13.148;2022-08-19T06:14:29;21.20;99.90
6210;DHT22;3138;52.550;13.148;2022-08-19T06:16:56;21.30;99.90
6210;DHT22;3138;52.550;13.148;2022-08-19T06:19:28;21.30;99.90
6210;DHT22;3138;52.550;13.148;2022-08-19T06:21:56;21.30;99.90
6210;DHT22;3138;52.550;13.148;2022-08-19T06:24:25;21.20;99.90
6210;DHT22;3138;52.550;13.148;2022-08-19T06:26:57;21.30;99.90
6210;DHT22;3138;52.550;13.148;2022-08-19T06:29:26;21.60;99.90
6210;DHT22;3138;52.550;13.148;2022-08-19T06:31:55;21.70;99.90
6210;DHT22;3138;52.550;13.148;2022-08-19T06:34:23;21.80;99.90
6210;DHT22;3138;52.550;13.148;2022-08-19T06:36:52;22.00;99.90
6210;DHT22;3138;52.550;13.148;2022-08-19T06:39:21;22.10;99.90
6210;DHT22;3138;52.550;13.148;2022-08-19T06:41:52;22.10;99.90
6210;DHT22;3138;52.550;13.148;2022-08-19T06:44:22;22.00;99.90
6210;DHT22;3138;52.550;13.148;2022-08-19T06:46:51;22.10;99.90
6210;DHT22;3138;52.550;13.148;2022-08-19T06:49:18;22.00;99.90
6210;DHT22;3138;52.550;13.148;2022-08-19T06:51:46;22.00;99.90
6210;DHT22;3138;52.550;13.148;2022-08-19T06:54:14;22.00;99.90
6210;DHT22;3138;52.550;13.148;2022-08-19T06:56:40;22.00;99.90
6210;DHT22;3138;52.550;13.148;2022-08-19T06:59:18;21.90;99.90
6210;DHT22;3138;52.550;13.148;2022-08-19T07:01:54;21.90;99.90
6210;DHT22;3138;52.550;13.148;2022-08-19T07:04:28;21.90;99.90
6210;DHT22;3138;52.550;13.148;2022-08-19T07:07:09;21.80;99.90
6210;DHT22;3138;52.550;13.148;2022-08-19T07:09:41;21.80;99.90
6210;DHT22;3138;52.550;13.148;2022-08-19T07:12:12;21.90;99.90
6210;DHT22;3138;52.550;13.148;2022-08-19T07:14:41;21.90;99.90
6210;DHT22;3138;52.550;13.148;2022-08-19T07:17:10;21.90;99.90
6210;DHT22;3138;52.550;13.148;2022-08-19T07:19:38;21.90;99.90
6210;DHT22;3138;52.550;13.148;2022-08-19T07:22:22;21.90;99.90
6210;DHT22;3138;52.550;13.148;2022-08-19T07:24:49;21.90;99.90
6210;DHT22;3138;52.550;13.148;2022-08-19T07:27:16;22.00;99.90
6210;DHT22;3138;52.550;13.148;2022-08-19T07:29:44;22.00;99.90
6210;DHT22;3138;52.550;13.148;2022-08-19T07:32:12;21.90;99.90
6210;DHT22;3138;52.550;13.148;2022-08-19T07:34:39;22.00;99.90
6210;DHT22;3138;52.550;13.148;2022-08-19T07:37:18;22.00;99.90
6210;DHT22;3138;52.550;13.148;2022-08-19T07:39:47;21.90;99.90
6210;DHT22;3138;52.550;13.148;2022-08-19T07:42:14;21.90;99.90
6210;DHT22;3138;52.550;13.148;2022-08-19T07:44:42;21.90;99.90
6210;DHT22;3138;52.550;13.148;2022-08-19T07:47:09;21.80;99.90
6210;DHT22;3138;52.550;13.148;2022-08-19T07:49:37;21.70;99.90
6210;DHT22;3138;52.550;13.148;2022-08-19T07:52:09;21.70;99.90
6210;DHT22;3138;52.550;13.148;2022-08-19T07:54:37;21.60;99.90
6210;DHT22;3138;52.550;13.148;2022-08-19T07:57:05;21.70;99.90
6210;DHT22;3138;52.550;13.148;2022-08-19T07:59:47;21.70;99.90
6210;DHT22;3138;52.550;13.148;2022-08-19T08:02:14;21.60;99.90
6210;DHT22;3138;52.550;13.148;2022-08-19T08:04:42;21.60;99.90
6210;DHT22;3138;52.550;13.148;2022-08-19T08:07:26;21.60;99.90
6210;DHT22;3138;52.550;13.148;2022-08-19T08:10:13;21.70;99.90
6210;DHT22;3138;52.550;13.148;2022-08-19T08:12:40;21.60;99.90
6210;DHT22;3138;52.550;13.148;2022-08-19T08:15:11;21.60;99.90
6210;DHT22;3138;52.550;13.148;2022-08-19T08:17:42;21.60;99.90
6210;DHT22;3138;52.550;13.148;2022-08-19T08:20:11;21.60;99.90
6210;DHT22;3138;52.550;13.148;2022-08-19T08:22:43;21.60;99.90
6210;DHT22;3138;52.550;13.148;2022-08-19T08:25:27;21.60;99.90
6210;DHT22;3138;52.550;13.148;2022-08-19T08:27:55;21.50;99.90
6210;DHT22;3138;52.550;13.148;2022-08-19T08:30:26;21.50;99.90
6210;DHT22;3138;52.550;13.148;2022-08-19T08:32:53;21.50;99.90
6210;DHT22;3138;52.550;13.148;2022-08-19T08:35:23;21.50;99.90
6210;DHT22;3138;52.550;13.148;2022-08-19T08:37:52;21.60;99.90
6210;DHT22;3138;52.550;13.148;2022-08-19T08:40:26;21.50;99.90
6210;DHT22;3138;52.550;13.148;2022-08-19T08:42:58;21.50;99.90
6210;DHT22;3138;52.550;13.148;2022-08-19T08:45:30;21.50;99.90
6210;DHT22;3138;52.550;13.148;2022-08-19T08:48:02;21.50;99.90
6210;DHT22;3138;52.550;13.148;2022-08-19T08:50:42;21.40;99.90
6210;DHT22;3138;52.550;13.148;2022-08-19T08:53:17;21.50;99.90
6210;DHT22;3138;52.550;13.148;2022-08-19T08:55:44;21.50;99.90
6210;DHT22;3138;52.550;13.148;2022-08-19T08:58:16;21.50;99.90
6210;DHT22;3138;52.550;13.148;2022-08-19T09:00:48;21.50;99.90
6210;DHT22;3138;52.550;13.148;2022-08-19T09:03:18;21.50;99.90
6210;DHT22;3138;52.550;13.148;2022-08-19T09:05:52;21.60;99.90
6210;DHT22;3138;52.550;13.148;2022-08-19T09:08:31;21.60;99.90
6210;DHT22;3138;52.550;13.148;2022-08-19T09:11:00;21.60;99.90
6210;DHT22;3138;52.550;13.148;2022-08-19T09:13:36;21.60;99.90
6210;DHT22;3138;52.550;13.148;2022-08-19T09:16:10;21.60;99.90
6210;DHT22;3138;52.550;13.148;2022-08-19T09:18:40;21.60;99.90
6210;DHT22;3138;52.550;13.148;2022-08-19T09:21:09;21.60;99.90
6210;DHT22;3138;52.550;13.148;2022-08-19T09:23:36;21.60;99.90
6210;DHT22;3138;52.550;13.148;2022-08-19T09:26:07;21.60;99.90
6210;DHT22;3138;52.550;13.148;2022-08-19T09:28:34;21.60;99.90
6210;DHT22;3138;52.550;13.148;2022-08-19T09:31:02;21.60;99.90
6210;DHT22;3138;52.550;13.148;2022-08-19T09:33:29;21.70;99.90
6210;DHT22;3138;52.550;13.148;2022-08-19T09:36:05;21.70;99.90
6210;DHT22;3138;52.550;13.148;2022-08-19T09:38:34;21.60;99.90
6210;DHT22;3138;52.550;13.148;2022-08-19T09:41:04;21.70;99.90
6210;DHT22;3138;52.550;13.148;2022-08-19T09:43:31;21.80;99.90
6210;DHT22;3138;52.550;13.148;2022-08-19T09:45:59;21.90;99.90
6210;DHT22;3138;52.550;13.148;2022-08-19T09:48:26;21.90;99.90
6210;DHT22;3138;52.550;13.148;2022-08-19T09:50:53;22.00;99.90
6210;DHT22;3138;52.550;13.148;2022-08-19T09:53:20;22.00;99.90
6210;DHT22;3138;52.550;13.148;2022-08-19T09:55:49;22.10;99.90
6210;DHT22;3138;52.550;13.148;2022-08-19T09:58:16;22.00;99.90
6210;DHT22;3138;52.550;13.148;2022-08-19T10:00:43;22.00;99.90
6210;DHT22;3138;52.550;13.148;2022-08-19T10:03:11;22.10;99.90
6210;DHT22;3138;52.550;13.148;2022-08-19T10:05:38;22.10;99.90
6210;DHT22;3138;52.550;13.148;2022-08-19T10:08:18;22.10;99.90
6210;DHT22;3138;52.550;13.148;2022-08-19T10:10:46;22.20;99.90
6210;DHT22;3138;52.550;13.148;2022-08-19T10:13:17;22.10;99.90
6210;DHT22;3138;52.550;13.148;2022-08-19T10:15:48;22.20;99.90
6210;DHT22;3138;52.550;13.148;2022-08-19T10:18:16;22.10;99.90
6210;DHT22;3138;52.550;13.148;2022-08-19T10:20:43;22.10;99.90
6210;DHT22;3138;52.550;13.148;2022-08-19T10:23:11;22.20;99.90
6210;DHT22;3138;52.550;13.148;2022-08-19T10:25:38;22.30;99.90
6210;DHT22;3138;52.550;13.148;2022-08-19T10:28:05;22.40;99.90
6210;DHT22;3138;52.550;13.148;2022-08-19T10:30:35;22.50;99.90
6210;DHT22;3138;52.550;13.148;2022-08-19T10:33:02;22.60;99.90
6210;DHT22;3138;52.550;13.148;2022-08-19T10:35:33;22.60;99.90
6210;DHT22;3138;52.550;13.148;2022-08-19T10:38:02;22.70;99.90
6210;DHT22;3138;52.550;13.148;2022-08-19T10:40:29;22.70;99.90
6210;DHT22;3138;52.550;13.148;2022-08-19T10:43:04;22.80;99.90
6210;DHT22;3138;52.550;13.148;2022-08-19T10:45:51;22.90;99.90
6210;DHT22;3138;52.550;13.148;2022-08-19T10:48:19;23.00;99.90
6210;DHT22;3138;52.550;13.148;2022-08-19T10:50:46;22.90;99.90
6210;DHT22;3138;52.550;13.148;2022-08-19T10:53:30;23.10;99.90
6210;DHT22;3138;52.550;13.148;2022-08-19T10:55:57;23.20;99.90
6210;DHT22;3138;52.550;13.148;2022-08-19T10:58:41;23.20;99.90
6210;DHT22;3138;52.550;13.148;2022-08-19T11:01:10;23.10;99.90
6210;DHT22;3138;52.550;13.148;2022-08-19T11:03:36;23.10;99.90
6210;DHT22;3138;52.550;13.148;2022-08-19T11:06:06;23.10;99.90
6210;DHT22;3138;52.550;13.148;2022-08-19T11:08:33;22.80;99.90
6210;DHT22;3138;52.550;13.148;2022-08-19T11:11:03;22.70;99.90
6210;DHT22;3138;52.550;13.148;2022-08-19T11:13:34;22.70;99.90
6210;DHT22;3138;52.550;13.148;2022-08-19T11:16:04;22.70;99.90
6210;DHT22;3138;52.550;13.148;2022-08-19T11:18:34;22.60;99.90
6210;DHT22;3138;52.550;13.148;2022-08-19T11:21:10;22.80;99.90
6210;DHT22;3138;52.550;13.148;2022-08-19T11:23:37;22.80;99.90
6210;DHT22;3138;52.550;13.148;2022-08-19T11:26:04;22.80;99.90
6210;DHT22;3138;52.550;13.148;2022-08-19T11:28:31;22.80;99.90
6210;DHT22;3138;52.550;13.148;2022-08-19T11:30:59;22.80;99.90
6210;DHT22;3138;52.550;13.148;2022-08-19T11:33:26;22.80;99.90
6210;DHT22;3138;52.550;13.148;2022-08-19T11:35:57;22.90;99.90
6210;DHT22;3138;52.550;13.148;2022-08-19T11:38:24;22.90;99.90
6210;DHT22;3138;52.550;13.148;2022-08-19T11:40:55;22.90;99.90
6210;DHT22;3138;52.550;13.148;2022-08-19T11:43:22;22.90;99.90
6210;DHT22;3138;52.550;13.148;2022-08-19T11:45:49;22.70;99.90
6210;DHT22;3138;52.550;13.148;2022-08-19T11:48:16;22.70;99.90
6210;DHT22;3138;52.550;13.148;2022-08-19T11:50:48;22.70;99.90
6210;DHT22;3138;52.550;13.148;2022-08-19T11:53:17;22.80;99.90
6210;DHT22;3138;52.550;13.148;2022-08-19T11:55:44;22.60;99.90
6210;DHT22;3138;52.550;13.148;2022-08-19T11:58:12;22.70;99.90
6210;DHT22;3138;52.550;13.148;2022-08-19T12:00:39;22.70;99.90
6210;DHT22;3138;52.550;13.148;2022-08-19T12:03:06;22.50;99.90
6210;DHT22;3138;52.550;13.148;2022-08-19T12:05:33;22.60;99.90
6210;DHT22;3138;52.550;13.148;2022-08-19T12:07:59;22.60;99.90
6210;DHT22;3138;52.550;13.148;2022-08-19T12:10:27;22.60;99.90
6210;DHT22;3138;52.550;13.148;2022-08-19T12:12:54;22.60;99.90
6210;DHT22;3138;52.550;13.148;2022-08-19T12:15:21;22.50;99.90
6210;DHT22;3138;52.550;13.148;2022-08-19T12:17:48;22.60;99.90
6210;DHT22;3138;52.550;13.148;2022-08-19T12:20:15;22.60;99.90
6210;DHT22;3138;52.550;13.148;2022-08-19T12:22:43;22.70;99.90
6210;DHT22;3138;52.550;13.148;2022-08-19T12:25:10;22.90;99.90
6210;DHT22;3138;52.550;13.148;2022-08-19T12:27:38;23.00;99.90
6210;DHT22;3138;52.550;13.148;2022-08-19T12:30:07;23.10;99.90
6210;DHT22;3138;52.550;13.148;2022-08-19T12:32:35;23.20;99.90
6210;DHT22;3138;52.550;13.148;2022-08-19T12:35:02;23.30;99.90
6210;DHT22;3138;52.550;13.148;2022-08-19T12:37:29;23.40;99.90
6210;DHT22;3138;52.550;13.148;2022-08-19T12:39:57;23.40;99.90
6210;DHT22;3138;52.550;13.148;2022-08-19T12:42:24;23.30;99.90
6210;DHT22;3138;52.550;13.148;2022-08-19T12:44:52;23.40;99.90
6210;DHT22;3138;52.550;13.148;2022-08-19T12:47:19;23.20;99.90
6210;DHT22;3138;52.550;13.148;2022-08-19T12:49:46;23.20;99.90
6210;DHT22;3138;52.550;13.148;2022-08-19T12:52:14;23.20;99.90
6210;DHT22;3138;52.550;13.148;2022-08-19T12:54:41;23.20;99.90
6210;DHT22;3138;52.550;13.148;2022-08-19T12:57:10;23.20;99.90
6210;DHT22;3138;52.550;13.148;2022-08-19T12:59:38;23.00;99.90
6210;DHT22;3138;52.550;13.148;2022-08-19T13:02:07;23.10;99.90
6210;DHT22;3138;52.550;13.148;2022-08-19T13:04:35;23.00;99.90
6210;DHT22;3138;52.550;13.148;2022-08-19T13:07:06;23.10;99.90
6210;DHT22;3138;52.550;13.148;2022-08-19T13:09:33;23.20;99.90
6210;DHT22;3138;52.550;13.148;2022-08-19T13:12:00;23.00;99.90
6210;DHT22;3138;52.550;13.148;2022-08-19T13:14:28;23.00;99.90
6210;DHT22;3138;52.550;13.148;2022-08-19T13:16:57;23.10;99.90
6210;DHT22;3138;52.550;13.148;2022-08-19T13:19:25;23.20;99.90
6210;DHT22;3138;52.550;13.148;2022-08-19T13:21:52;23.30;99.90
6210;DHT22;3138;52.550;13.148;2022-08-19T13:24:20;23.30;99.90
6210;DHT22;3138;52.550;13.148;2022-08-19T13:26:47;23.30;99.90
6210;DHT22;3138;52.550;13.148;2022-08-19T13:29:14;23.30;99.90
6210;DHT22;3138;52.550;13.148;2022-08-19T13:31:58;23.40;99.90
6210;DHT22;3138;52.550;13.148;2022-08-19T13:34:44;23.40;99.90
6210;DHT22;3138;52.550;13.148;2022-08-19T13:37:12;23.50;99.90
6210;DHT22;3138;52.550;13.148;2022-08-19T13:39:40;23.40;99.90
6210;DHT22;3138;52.550;13.148;2022-08-19T13:42:06;23.40;99.90
6210;DHT22;3138;52.550;13.148;2022-08-19T13:44:35;23.50;99.90
6210;DHT22;3138;52.550;13.148;2022-08-19T13:47:05;23.50;99.90
6210;DHT22;3138;52.550;13.148;2022-08-19T13:49:32;23.60;99.90
6210;DHT22;3138;52.550;13.148;2022-08-19T13:52:00;23.80;99.90
6210;DHT22;3138;52.550;13.148;2022-08-19T13:54:27;23.70;99.90
6210;DHT22;3138;52.550;13.148;2022-08-19T13:56:54;23.90;99.90
6210;DHT22;3138;52.550;13.148;2022-08-19T13:59:21;24.00;99.90
6210;DHT22;3138;52.550;13.148;2022-08-19T14:01:47;24.10;99.90
6210;DHT22;3138;52.550;13.148;2022-08-19T14:04:15;23.90;99.90
6210;DHT22;3138;52.550;13.148;2022-08-19T14:06:42;24.10;99.90
6210;DHT22;3138;52.550;13.148;2022-08-19T14:09:10;24.10;99.90
6210;DHT22;3138;52.550;13.148;2022-08-19T14:11:37;24.20;99.90
6210;DHT22;3138;52.550;13.148;2022-08-19T14:14:03;24.40;99.90
6210;DHT22;3138;52.550;13.148;2022-08-19T14:16:30;24.40;99.90
6210;DHT22;3138;52.550;13.148;2022-08-19T14:18:57;24.60;99.90
6210;DHT22;3138;52.550;13.148;2022-08-19T14:21:24;24.40;99.90
6210;DHT22;3138;52.550;13.148;2022-08-19T14:23:52;24.20;99.90
6210;DHT22;3138;52.550;13.148;2022-08-19T14:26:21;24.20;99.90
6210;DHT22;3138;52.550;13.148;2022-08-19T14:28:48;24.20;99.90
6210;DHT22;3138;52.550;13.148;2022-08-19T14:31:17;23.90;99.90
6210;DHT22;3138;52.550;13.148;2022-08-19T14:33:45;23.90;99.90
6210;DHT22;3138;52.550;13.148;2022-08-19T14:36:12;23.80;99.90
6210;DHT22;3138;52.550;13.148;2022-08-19T14:38:39;23.60;99.90
6210;DHT22;3138;52.550;13.148;2022-08-19T14:41:12;23.30;99.90
6210;DHT22;3138;52.550;13.148;2022-08-19T14:43:40;23.20;99.90
6210;DHT22;3138;52.550;13.148;2022-08-19T14:46:07;23.20;99.90
6210;DHT22;3138;52.550;13.148;2022-08-19T14:48:35;23.10;99.90
6210;DHT22;3138;52.550;13.148;2022-08-19T14:51:04;23.10;99.90
6210;DHT22;3138;52.550;13.148;2022-08-19T14:53:31;23.10;99.90
6210;DHT22;3138;52.550;13.148;2022-08-19T14:55:59;23.20;99.90
6210;DHT22;3138;52.550;13.148;2022-08-19T14:58:26;23.20;99.90
6210;DHT22;3138;52.550;13.148;2022-08-19T15:00:54;23.00;99.90
6210;DHT22;3138;52.550;13.148;2022-08-19T15:03:21;22.90;99.90
6210;DHT22;3138;52.550;13.148;2022-08-19T15:05:48;22.80;99.90
6210;DHT22;3138;52.550;13.148;2022-08-19T15:08:15;22.80;99.90
6210;DHT22;3138;52.550;13.148;2022-08-19T15:10:41;22.70;99.90
6210;DHT22;3138;52.550;13.148;2022-08-19T15:13:09;22.70;99.90
6210;DHT22;3138;52.550;13.148;2022-08-19T15:15:36;22.60;99.90
6210;DHT22;3138;52.550;13.148;2022-08-19T15:18:05;22.60;99.90
6210;DHT22;3138;52.550;13.148;2022-08-19T15:20:32;22.60;99.90
6210;DHT22;3138;52.550;13.148;2022-08-19T15:22:59;22.60;99.90
6210;DHT22;3138;52.550;13.148;2022-08-19T15:25:26;22.50;99.90
6210;DHT22;3138;52.550;13.148;2022-08-19T15:27:53;22.50;99.90
6210;DHT22;3138;52.550;13.148;2022-08-19T15:30:22;22.50;99.90
6210;DHT22;3138;52.550;13.148;2022-08-19T15:32:50;22.50;99.90
6210;DHT22;3138;52.550;13.148;2022-08-19T15:35:19;22.40;99.90
6210;DHT22;3138;52.550;13.148;2022-08-19T15:37:48;22.40;99.90
6210;DHT22;3138;52.550;13.148;2022-08-19T15:40:16;22.40;99.90
6210;DHT22;3138;52.550;13.148;2022-08-19T15:42:43;22.40;99.90
6210;DHT22;3138;52.550;13.148;2022-08-19T15:45:12;22.30;99.90
6210;DHT22;3138;52.550;13.148;2022-08-19T15:47:39;22.20;99.90
6210;DHT22;3138;52.550;13.148;2022-08-19T15:50:07;22.20;99.90
6210;DHT22;3138;52.550;13.148;2022-08-19T15:52:37;22.10;99.90
6210;DHT22;3138;52.550;13.148;2022-08-19T15:55:04;22.10;99.90